sensor_id;sensor_type;location;lat;lon;timestamp;temperature;humidity
26408;DHT22;14583;43.604;1.364;2022-12-18T00:01:43;7.00;99.90
26408;DHT22;14583;43.604;1.364;2022-12-18T00:04:20;7.10;99.90
26408;DHT22;14583;43.604;1.364;2022-12-18T00:06:46;7.00;99.90
26408;DHT22;14583;43.604;1.364;2022-12-18T00:09:12;7.00;99.90
26408;DHT22;14583;43.604;1.364;2022-12-18T00:11:37;6.90;99.90
26408;DHT22;14583;43.604;1.364;2022-12-18T00:14:03;6.90;99.90
26408;DHT22;14583;43.604;1.364;2022-12-18T00:16:29;6.80;99.90
26408;DHT22;14583;43.604;1.364;2022-12-18T00:18:58;6.70;99.90
26408;DHT22;14583;43.604;1.364;2022-12-18T00:21:25;6.70;99.90
26408;DHT22;14583;43.604;1.364;2022-12-18T00:23:51;6.80;99.90
26408;DHT22;14583;43.604;1.364;2022-12-18T00:26:20;6.80;99.90
26408;DHT22;14583;43.604;1.364;2022-12-18T00:28:46;6.90;99.90
26408;DHT22;14583;43.604;1.364;2022-12-18T00:31:20;7.00;99.90
26408;DHT22;14583;43.604;1.364;2022-12-18T00:33:47;7.00;99.90
26408;DHT22;14583;43.604;1.364;2022-12-18T00:36:24;7.10;99.90
26408;DHT22;14583;43.604;1.364;2022-12-18T00:38:57;7.10;99.90
26408;DHT22;14583;43.604;1.364;2022-12-18T00:41:24;7.20;99.90
26408;DHT22;14583;43.604;1.364;2022-12-18T00:44:10;7.10;99.90
26408;DHT22;14583;43.604;1.364;2022-12-18T00:46:37;7.10;99.90
26408;DHT22;14583;43.604;1.364;2022-12-18T00:49:03;7.10;99.90
26408;DHT22;14583;43.604;1.364;2022-12-18T00:51:28;7.00;99.90
26408;DHT22;14583;43.604;1.364;2022-12-18T00:53:55;7.00;99.90
26408;DHT22;14583;43.604;1.364;2022-12-18T00:56:21;7.10;99.90
26408;DHT22;14583;43.604;1.364;2022-12-18T00:58:47;7.00;99.90
26408;DHT22;14583;43.604;1.364;2022-12-18T01:01:13;7.10;99.90
26408;DHT22;14583;43.604;1.364;2022-12-18T01:03:38;7.00;99.90
26408;DHT22;14583;43.604;1.364;2022-12-18T01:06:08;6.80;99.90
26408;DHT22;14583;43.604;1.364;2022-12-18T01:08:35;6.80;99.90
26408;DHT22;14583;43.604;1.364;2022-12-18T01:11:10;6.70;99.90
26408;DHT22;14583;43.604;1.364;2022-12-18T01:13:37;6.70;99.90
26408;DHT22;14583;43.604;1.364;2022-12-18T01:16:03;6.90;99.90
26408;DHT22;14583;43.604;1.364;2022-12-18T01:18:29;6.90;99.90
26408;DHT22;14583;43.604;1.364;2022-12-18T01:20:54;7.00;99.90
26408;DHT22;14583;43.604;1.364;2022-12-18T01:23:20;7.00;99.90
26408;DHT22;14583;43.604;1.364;2022-12-18T01:25:45;7.00;99.90
26408;DHT22;14583;43.604;1.364;2022-12-18T01:28:11;7.10;99.90
26408;DHT22;14583;43.604;1.364;2022-12-18T01:30:37;7.10;99.90
26408;DHT22;14583;43.604;1.364;2022-12-18T01:33:04;7.00;99.90
26408;DHT22;14583;43.604;1.364;2022-12-18T01:35:31;7.10;99.90
26408;DHT22;14583;43.604;1.364;2022-12-18T01:37:57;7.10;99.90
26408;DHT22;14583;43.604;1.364;2022-12-18T01:40:23;7.10;99.90
26408;DHT22;14583;43.604;1.364;2022-12-18T01:42:52;7.10;99.90
26408;DHT22;14583;43.604;1.364;2022-12-18T01:47:56;6.90;99.90
26408;DHT22;14583;43.604;1.364;2022-12-18T01:50:33;6.80;99.90
26408;DHT22;14583;43.604;1.364;2022-12-18T01:55:30;6.80;99.90
26408;DHT22;14583;43.604;1.364;2022-12-18T01:57:58;6.70;99.90
26408;DHT22;14583;43.604;1.364;2022-12-18T02:00:25;6.70;99.90
26408;DHT22;14583;43.604;1.364;2022-12-18T02:02:52;6.60;99.90
26408;DHT22;14583;43.604;1.364;2022-12-18T02:05:22;6.60;99.90
26408;DHT22;14583;43.604;1.364;2022-12-18T02:10:45;6.60;99.90
26408;DHT22;14583;43.604;1.364;2022-12-18T02:19:03;6.40;99.90
26408;DHT22;14583;43.604;1.364;2022-12-18T02:22:21;6.30;99.90
26408;DHT22;14583;43.604;1.364;2022-12-18T02:26:55;6.30;99.90
26408;DHT22;14583;43.604;1.364;2022-12-18T02:29:25;6.30;99.90
26408;DHT22;14583;43.604;1.364;2022-12-18T02:31:56;6.30;99.90
26408;DHT22;14583;43.604;1.364;2022-12-18T02:34:25;6.30;99.90
26408;DHT22;14583;43.604;1.364;2022-12-18T02:36:53;6.20;99.90
26408;DHT22;14583;43.604;1.364;2022-12-18T02:39:20;6.10;99.90
26408;DHT22;14583;43.604;1.364;2022-12-18T02:41:48;6.10;99.90
26408;DHT22;14583;43.604;1.364;2022-12-18T02:44:14;6.10;99.90
26408;DHT22;14583;43.604;1.364;2022-12-18T02:46:43;6.10;99.90
26408;DHT22;14583;43.604;1.364;2022-12-18T02:57:34;6.00;99.90
26408;DHT22;14583;43.604;1.364;2022-12-18T03:00:07;5.90;99.90
26408;DHT22;14583;43.604;1.364;2022-12-18T03:02:59;5.90;99.90
26408;DHT22;14583;43.604;1.364;2022-12-18T03:05:33;5.90;99.90
26408;DHT22;14583;43.604;1.364;2022-12-18T03:08:10;5.80;99.90
26408;DHT22;14583;43.604;1.364;2022-12-18T03:10:43;5.80;99.90
26408;DHT22;14583;43.604;1.364;2022-12-18T03:13:20;5.80;99.90
26408;DHT22;14583;43.604;1.364;2022-12-18T03:15:51;5.80;99.90
26408;DHT22;14583;43.604;1.364;2022-12-18T03:18:40;5.80;99.90
26408;DHT22;14583;43.604;1.364;2022-12-18T03:21:08;5.80;99.90
26408;DHT22;14583;43.604;1.364;2022-12-18T03:23:44;5.80;99.90
26408;DHT22;14583;43.604;1.364;2022-12-18T03:26:16;5.80;99.90
26408;DHT22;14583;43.604;1.364;2022-12-18T03:28:46;5.90;99.90
26408;DHT22;14583;43.604;1.364;2022-12-18T03:31:14;5.80;99.90
26408;DHT22;14583;43.604;1.364;2022-12-18T03:33:53;5.90;99.90
26408;DHT22;14583;43.604;1.364;2022-12-18T03:36:19;5.90;99.90
26408;DHT22;14583;43.604;1.364;2022-12-18T03:38:45;5.90;99.90
26408;DHT22;14583;43.604;1.364;2022-12-18T03:44:09;5.80;99.90
26408;DHT22;14583;43.604;1.364;2022-12-18T03:49:37;5.80;99.90
26408;DHT22;14583;43.604;1.364;2022-12-18T03:54:33;5.70;99.90
26408;DHT22;14583;43.604;1.364;2022-12-18T03:57:09;5.60;99.90
26408;DHT22;14583;43.604;1.364;2022-12-18T03:59:38;5.50;99.90
26408;DHT22;14583;43.604;1.364;2022-12-18T04:02:06;5.60;99.90
26408;DHT22;14583;43.604;1.364;2022-12-18T04:04:35;5.60;99.90
26408;DHT22;14583;43.604;1.364;2022-12-18T04:07:03;5.60;99.90
26408;DHT22;14583;43.604;1.364;2022-12-18T04:09:32;5.60;99.90
26408;DHT22;14583;43.604;1.364;2022-12-18T04:11:58;5.60;99.90
26408;DHT22;14583;43.604;1.364;2022-12-18T04:14:24;5.70;99.90
26408;DHT22;14583;43.604;1.364;2022-12-18T04:16:50;5.60;99.90
26408;DHT22;14583;43.604;1.364;2022-12-18T04:19:16;5.50;99.90
26408;DHT22;14583;43.604;1.364;2022-12-18T04:21:41;5.40;99.90
26408;DHT22;14583;43.604;1.364;2022-12-18T04:24:07;5.50;99.90
26408;DHT22;14583;43.604;1.364;2022-12-18T04:26:33;5.40;99.90
26408;DHT22;14583;43.604;1.364;2022-12-18T04:28:59;5.40;99.90
26408;DHT22;14583;43.604;1.364;2022-12-18T04:31:25;5.30;99.90
26408;DHT22;14583;43.604;1.364;2022-12-18T04:33:51;5.30;99.90
26408;DHT22;14583;43.604;1.364;2022-12-18T04:36:17;5.30;99.90
26408;DHT22;14583;43.604;1.364;2022-12-18T04:38:42;5.30;99.90
26408;DHT22;14583;43.604;1.364;2022-12-18T04:41:08;5.30;99.90
26408;DHT22;14583;43.604;1.364;2022-12-18T04:43:33;5.30;99.90
26408;DHT22;14583;43.604;1.364;2022-12-18T04:46:04;5.30;99.90
26408;DHT22;14583;43.604;1.364;2022-12-18T04:48:30;5.30;99.90
26408;DHT22;14583;43.604;1.364;2022-12-18T04:50:55;5.20;99.90
26408;DHT22;14583;43.604;1.364;2022-12-18T04:53:21;5.20;99.90
26408;DHT22;14583;43.604;1.364;2022-12-18T04:55:47;5.20;99.90
26408;DHT22;14583;43.604;1.364;2022-12-18T04:58:12;5.10;99.90
26408;DHT22;14583;43.604;1.364;2022-12-18T05:00:38;5.10;99.90
26408;DHT22;14583;43.604;1.364;2022-12-18T05:03:04;5.10;99.90
26408;DHT22;14583;43.604;1.364;2022-12-18T05:05:29;5.10;99.90
26408;DHT22;14583;43.604;1.364;2022-12-18T05:07:55;5.10;99.90
26408;DHT22;14583;43.604;1.364;2022-12-18T05:10:21;5.10;99.90
26408;DHT22;14583;43.604;1.364;2022-12-18T05:12:46;5.00;99.90
26408;DHT22;14583;43.604;1.364;2022-12-18T05:15:30;5.10;99.90
26408;DHT22;14583;43.604;1.364;2022-12-18T05:17:58;5.10;99.90
26408;DHT22;14583;43.604;1.364;2022-12-18T05:20:24;5.10;99.90
26408;DHT22;14583;43.604;1.364;2022-12-18T05:22:51;5.10;99.90
26408;DHT22;14583;43.604;1.364;2022-12-18T05:25:17;5.00;99.90
26408;DHT22;14583;43.604;1.364;2022-12-18T05:27:43;5.00;99.90
26408;DHT22;14583;43.604;1.364;2022-12-18T05:30:09;4.90;99.90
26408;DHT22;14583;43.604;1.364;2022-12-18T05:32:35;5.00;99.90
26408;DHT22;14583;43.604;1.364;2022-12-18T05:35:01;4.90;99.90
26408;DHT22;14583;43.604;1.364;2022-12-18T05:37:27;4.90;99.90
26408;DHT22;14583;43.604;1.364;2022-12-18T05:39:52;4.80;99.90
26408;DHT22;14583;43.604;1.364;2022-12-18T05:42:18;4.80;99.90
26408;DHT22;14583;43.604;1.364;2022-12-18T05:44:43;4.80;99.90
26408;DHT22;14583;43.604;1.364;2022-12-18T05:47:09;4.80;99.90
26408;DHT22;14583;43.604;1.364;2022-12-18T05:49:35;4.70;99.90
26408;DHT22;14583;43.604;1.364;2022-12-18T05:52:01;4.70;99.90
26408;DHT22;14583;43.604;1.364;2022-12-18T05:54:27;4.70;99.90
26408;DHT22;14583;43.604;1.364;2022-12-18T05:56:53;4.90;99.90
26408;DHT22;14583;43.604;1.364;2022-12-18T05:59:19;4.90;99.90
26408;DHT22;14583;43.604;1.364;2022-12-18T06:01:45;4.80;99.90
26408;DHT22;14583;43.604;1.364;2022-12-18T06:04:11;4.70;99.90
26408;DHT22;14583;43.604;1.364;2022-12-18T06:06:37;4.60;99.90
26408;DHT22;14583;43.604;1.364;2022-12-18T06:09:03;4.60;99.90
26408;DHT22;14583;43.604;1.364;2022-12-18T06:11:35;4.70;99.90
26408;DHT22;14583;43.604;1.364;2022-12-18T06:14:02;4.70;99.90
26408;DHT22;14583;43.604;1.364;2022-12-18T06:16:28;4.60;99.90
26408;DHT22;14583;43.604;1.364;2022-12-18T06:18:58;4.60;99.90
26408;DHT22;14583;43.604;1.364;2022-12-18T06:21:25;4.70;99.90
26408;DHT22;14583;43.604;1.364;2022-12-18T06:23:50;4.50;99.90
26408;DHT22;14583;43.604;1.364;2022-12-18T06:26:16;4.50;99.90
26408;DHT22;14583;43.604;1.364;2022-12-18T06:28:42;4.50;99.90
26408;DHT22;14583;43.604;1.364;2022-12-18T06:31:09;4.50;99.90
26408;DHT22;14583;43.604;1.364;2022-12-18T06:33:35;4.60;99.90
26408;DHT22;14583;43.604;1.364;2022-12-18T06:36:03;4.70;99.90
26408;DHT22;14583;43.604;1.364;2022-12-18T06:38:29;4.60;99.90
26408;DHT22;14583;43.604;1.364;2022-12-18T06:40:56;4.60;99.90
26408;DHT22;14583;43.604;1.364;2022-12-18T06:43:21;4.60;99.90
26408;DHT22;14583;43.604;1.364;2022-12-18T06:45:47;4.60;99.90
26408;DHT22;14583;43.604;1.364;2022-12-18T06:48:21;4.50;99.90
26408;DHT22;14583;43.604;1.364;2022-12-18T06:50:47;4.50;99.90
26408;DHT22;14583;43.604;1.364;2022-12-18T06:53:13;4.60;99.90
26408;DHT22;14583;43.604;1.364;2022-12-18T06:55:39;4.60;99.90
26408;DHT22;14583;43.604;1.364;2022-12-18T06:58:04;4.60;99.90
26408;DHT22;14583;43.604;1.364;2022-12-18T07:00:30;4.60;99.90
26408;DHT22;14583;43.604;1.364;2022-12-18T07:02:56;4.60;99.90
26408;DHT22;14583;43.604;1.364;2022-12-18T07:05:21;4.60;99.90
26408;DHT22;14583;43.604;1.364;2022-12-18T07:07:47;4.50;99.90
26408;DHT22;14583;43.604;1.364;2022-12-18T07:10:13;4.40;99.90
26408;DHT22;14583;43.604;1.364;2022-12-18T07:12:38;4.50;99.90
26408;DHT22;14583;43.604;1.364;2022-12-18T07:15:04;4.60;99.90
26408;DHT22;14583;43.604;1.364;2022-12-18T07:17:30;4.70;99.90
26408;DHT22;14583;43.604;1.364;2022-12-18T07:19:56;4.70;99.90
26408;DHT22;14583;43.604;1.364;2022-12-18T07:22:22;4.80;99.90
26408;DHT22;14583;43.604;1.364;2022-12-18T07:24:47;5.00;99.90
26408;DHT22;14583;43.604;1.364;2022-12-18T07:27:13;5.00;99.90
26408;DHT22;14583;43.604;1.364;2022-12-18T07:29:38;4.90;99.90
26408;DHT22;14583;43.604;1.364;2022-12-18T07:32:04;4.90;99.90
26408;DHT22;14583;43.604;1.364;2022-12-18T07:34:30;4.90;99.90
26408;DHT22;14583;43.604;1.364;2022-12-18T07:36:56;4.90;99.90
26408;DHT22;14583;43.604;1.364;2022-12-18T07:39:21;4.80;99.90
26408;DHT22;14583;43.604;1.364;2022-12-18T07:41:47;4.80;99.90
26408;DHT22;14583;43.604;1.364;2022-12-18T07:44:33;4.80;99.90
26408;DHT22;14583;43.604;1.364;2022-12-18T07:46:58;4.70;99.90
26408;DHT22;14583;43.604;1.364;2022-12-18T07:49:24;4.70;99.90
26408;DHT22;14583;43.604;1.364;2022-12-18T07:51:50;4.70;99.90
26408;DHT22;14583;43.604;1.364;2022-12-18T07:54:15;4.80;99.90
26408;DHT22;14583;43.604;1.364;2022-12-18T07:56:41;4.90;99.90
26408;DHT22;14583;43.604;1.364;2022-12-18T07:59:07;4.90;99.90
26408;DHT22;14583;43.604;1.364;2022-12-18T08:01:33;5.00;99.90
26408;DHT22;14583;43.604;1.364;2022-12-18T08:03:59;5.20;99.90
26408;DHT22;14583;43.604;1.364;2022-12-18T08:06:24;5.40;99.90
26408;DHT22;14583;43.604;1.364;2022-12-18T08:08:54;5.50;99.90
26408;DHT22;14583;43.604;1.364;2022-12-18T08:11:21;5.60;99.90
26408;DHT22;14583;43.604;1.364;2022-12-18T08:13:47;5.60;99.90
26408;DHT22;14583;43.604;1.364;2022-12-18T08:16:12;5.80;99.90
26408;DHT22;14583;43.604;1.364;2022-12-18T08:18:38;5.90;99.90
26408;DHT22;14583;43.604;1.364;2022-12-18T08:23:35;6.10;99.90
26408;DHT22;14583;43.604;1.364;2022-12-18T08:26:01;6.20;99.90
26408;DHT22;14583;43.604;1.364;2022-12-18T08:28:27;6.30;99.90
26408;DHT22;14583;43.604;1.364;2022-12-18T08:30:53;6.30;99.90
26408;DHT22;14583;43.604;1.364;2022-12-18T08:33:18;6.40;99.90
26408;DHT22;14583;43.604;1.364;2022-12-18T08:35:44;6.50;99.90
26408;DHT22;14583;43.604;1.364;2022-12-18T08:38:10;6.50;99.90
26408;DHT22;14583;43.604;1.364;2022-12-18T08:40:36;6.50;99.90
26408;DHT22;14583;43.604;1.364;2022-12-18T08:43:01;6.60;99.90
26408;DHT22;14583;43.604;1.364;2022-12-18T08:45:45;6.60;99.90
26408;DHT22;14583;43.604;1.364;2022-12-18T08:48:11;6.70;99.90
26408;DHT22;14583;43.604;1.364;2022-12-18T08:50:37;6.80;99.90
26408;DHT22;14583;43.604;1.364;2022-12-18T08:53:02;6.80;99.90
26408;DHT22;14583;43.604;1.364;2022-12-18T08:55:28;6.80;99.90
26408;DHT22;14583;43.604;1.364;2022-12-18T08:57:54;6.90;99.90
26408;DHT22;14583;43.604;1.364;2022-12-18T09:00:19;7.00;99.90
26408;DHT22;14583;43.604;1.364;2022-12-18T09:02:45;7.00;99.90
26408;DHT22;14583;43.604;1.364;2022-12-18T09:05:11;7.10;99.90
26408;DHT22;14583;43.604;1.364;2022-12-18T09:07:36;7.10;99.90
26408;DHT22;14583;43.604;1.364;2022-12-18T09:10:03;7.20;99.90
26408;DHT22;14583;43.604;1.364;2022-12-18T09:12:29;7.30;99.90
26408;DHT22;14583;43.604;1.364;2022-12-18T09:14:54;7.30;99.90
26408;DHT22;14583;43.604;1.364;2022-12-18T09:17:21;7.40;99.90
26408;DHT22;14583;43.604;1.364;2022-12-18T09:19:47;7.50;99.90
26408;DHT22;14583;43.604;1.364;2022-12-18T09:22:13;7.50;99.90
26408;DHT22;14583;43.604;1.364;2022-12-18T09:24:39;7.50;99.90
26408;DHT22;14583;43.604;1.364;2022-12-18T09:27:04;7.50;99.90
26408;DHT22;14583;43.604;1.364;2022-12-18T09:29:30;7.60;99.90
26408;DHT22;14583;43.604;1.364;2022-12-18T09:31:56;7.60;99.90
26408;DHT22;14583;43.604;1.364;2022-12-18T09:34:21;7.70;99.90
26408;DHT22;14583;43.604;1.364;2022-12-18T09:36:47;7.70;99.90
26408;DHT22;14583;43.604;1.364;2022-12-18T09:39:14;7.80;99.90
26408;DHT22;14583;43.604;1.364;2022-12-18T09:41:46;7.90;99.90
26408;DHT22;14583;43.604;1.364;2022-12-18T09:47:03;8.00;99.90
26408;DHT22;14583;43.604;1.364;2022-12-18T09:49:34;8.00;99.90
26408;DHT22;14583;43.604;1.364;2022-12-18T09:54:56;8.20;99.90
26408;DHT22;14583;43.604;1.364;2022-12-18T09:57:24;8.20;99.90
26408;DHT22;14583;43.604;1.364;2022-12-18T09:59:59;8.30;99.90
26408;DHT22;14583;43.604;1.364;2022-12-18T10:02:30;8.40;99.90
26408;DHT22;14583;43.604;1.364;2022-12-18T10:05:07;8.50;99.90
26408;DHT22;14583;43.604;1.364;2022-12-18T10:10:19;8.70;99.90
26408;DHT22;14583;43.604;1.364;2022-12-18T10:15:58;8.80;99.90
26408;DHT22;14583;43.604;1.364;2022-12-18T10:18:58;8.90;99.90
26408;DHT22;14583;43.604;1.364;2022-12-18T10:21:34;8.90;99.90
26408;DHT22;14583;43.604;1.364;2022-12-18T10:26:37;9.10;99.90
26408;DHT22;14583;43.604;1.364;2022-12-18T10:29:12;9.10;99.90
26408;DHT22;14583;43.604;1.364;2022-12-18T10:31:37;9.10;99.90
26408;DHT22;14583;43.604;1.364;2022-12-18T10:34:03;9.10;99.90
26408;DHT22;14583;43.604;1.364;2022-12-18T10:36:29;9.10;99.90
26408;DHT22;14583;43.604;1.364;2022-12-18T10:39:15;9.20;99.90
26408;DHT22;14583;43.604;1.364;2022-12-18T10:41:40;9.20;99.90
26408;DHT22;14583;43.604;1.364;2022-12-18T10:44:32;9.20;99.90
26408;DHT22;14583;43.604;1.364;2022-12-18T10:47:04;9.20;99.90
26408;DHT22;14583;43.604;1.364;2022-12-18T10:49:32;9.20;99.90
26408;DHT22;14583;43.604;1.364;2022-12-18T10:52:18;9.20;99.90
26408;DHT22;14583;43.604;1.364;2022-12-18T10:54:59;9.20;99.90
26408;DHT22;14583;43.604;1.364;2022-12-18T10:57:31;9.20;99.90
26408;DHT22;14583;43.604;1.364;2022-12-18T11:00:21;9.20;99.90
26408;DHT22;14583;43.604;1.364;2022-12-18T11:02:43;9.20;99.90
26408;DHT22;14583;43.604;1.364;2022-12-18T11:07:52;9.20;99.90
26408;DHT22;14583;43.604;1.364;2022-12-18T11:10:29;9.20;99.90
26408;DHT22;14583;43.604;1.364;2022-12-18T11:12:57;9.30;99.90
26408;DHT22;14583;43.604;1.364;2022-12-18T11:15:34;9.20;99.90
26408;DHT22;14583;43.604;1.364;2022-12-18T11:17:59;9.30;99.90
26408;DHT22;14583;43.604;1.364;2022-12-18T11:20:35;9.30;99.90
26408;DHT22;14583;43.604;1.364;2022-12-18T11:23:04;9.30;99.90
26408;DHT22;14583;43.604;1.364;2022-12-18T11:25:32;9.30;99.90
26408;DHT22;14583;43.604;1.364;2022-12-18T11:28:04;9.30;99.90
26408;DHT22;14583;43.604;1.364;2022-12-18T11:30:33;9.40;99.90
26408;DHT22;14583;43.604;1.364;2022-12-18T11:38:26;9.60;99.90
26408;DHT22;14583;43.604;1.364;2022-12-18T11:43:56;9.60;99.90
26408;DHT22;14583;43.604;1.364;2022-12-18T11:46:32;9.70;99.90
26408;DHT22;14583;43.604;1.364;2022-12-18T11:49:38;9.80;99.90
26408;DHT22;14583;43.604;1.364;2022-12-18T11:52:08;9.80;99.90
26408;DHT22;14583;43.604;1.364;2022-12-18T11:54:35;9.80;99.90
26408;DHT22;14583;43.604;1.364;2022-12-18T11:57:34;9.80;99.90
26408;DHT22;14583;43.604;1.364;2022-12-18T12:00:21;9.90;99.90
26408;DHT22;14583;43.604;1.364;2022-12-18T12:14:15;10.00;99.90
26408;DHT22;14583;43.604;1.364;2022-12-18T12:17:04;10.10;99.90
26408;DHT22;14583;43.604;1.364;2022-12-18T12:19:53;10.10;99.90
26408;DHT22;14583;43.604;1.364;2022-12-18T12:22:34;10.10;99.90
26408;DHT22;14583;43.604;1.364;2022-12-18T12:38:42;10.30;99.90
26408;DHT22;14583;43.604;1.364;2022-12-18T12:41:13;10.30;99.90
26408;DHT22;14583;43.604;1.364;2022-12-18T12:44:01;10.30;99.90
26408;DHT22;14583;43.604;1.364;2022-12-18T12:46:31;10.50;99.90
26408;DHT22;14583;43.604;1.364;2022-12-18T12:49:19;10.60;99.90
26408;DHT22;14583;43.604;1.364;2022-12-18T12:51:53;10.60;99.90
26408;DHT22;14583;43.604;1.364;2022-12-18T12:54:24;10.60;99.90
26408;DHT22;14583;43.604;1.364;2022-12-18T12:56:57;10.80;99.90
26408;DHT22;14583;43.604;1.364;2022-12-18T13:02:20;10.90;99.90
26408;DHT22;14583;43.604;1.364;2022-12-18T13:07:49;10.70;99.90
26408;DHT22;14583;43.604;1.364;2022-12-18T13:15:45;10.60;99.90
26408;DHT22;14583;43.604;1.364;2022-12-18T13:18:20;10.60;99.90
26408;DHT22;14583;43.604;1.364;2022-12-18T13:21:08;10.50;99.90
26408;DHT22;14583;43.604;1.364;2022-12-18T13:23:37;10.40;99.90
26408;DHT22;14583;43.604;1.364;2022-12-18T13:36:43;10.60;99.90
26408;DHT22;14583;43.604;1.364;2022-12-18T13:39:23;10.70;99.90
26408;DHT22;14583;43.604;1.364;2022-12-18T13:41:54;10.80;99.90
26408;DHT22;14583;43.604;1.364;2022-12-18T13:44:59;10.90;99.90
26408;DHT22;14583;43.604;1.364;2022-12-18T13:47:26;10.90;99.90
26408;DHT22;14583;43.604;1.364;2022-12-18T13:49:53;11.00;99.90
26408;DHT22;14583;43.604;1.364;2022-12-18T13:52:26;11.00;99.90
26408;DHT22;14583;43.604;1.364;2022-12-18T13:54:56;11.10;99.90
26408;DHT22;14583;43.604;1.364;2022-12-18T13:57:34;11.20;99.90
26408;DHT22;14583;43.604;1.364;2022-12-18T14:02:51;11.20;99.90
26408;DHT22;14583;43.604;1.364;2022-12-18T14:05:35;11.20;99.90
26408;DHT22;14583;43.604;1.364;2022-12-18T14:08:05;11.20;99.90
26408;DHT22;14583;43.604;1.364;2022-12-18T14:10:33;11.20;99.90
26408;DHT22;14583;43.604;1.364;2022-12-18T14:13:05;11.30;99.90
26408;DHT22;14583;43.604;1.364;2022-12-18T14:18:44;11.50;99.90
26408;DHT22;14583;43.604;1.364;2022-12-18T14:21:23;11.60;99.90
26408;DHT22;14583;43.604;1.364;2022-12-18T14:24:13;12.00;99.90
26408;DHT22;14583;43.604;1.364;2022-12-18T14:26:39;13.30;99.90
26408;DHT22;14583;43.604;1.364;2022-12-18T14:29:28;15.30;99.90
26408;DHT22;14583;43.604;1.364;2022-12-18T14:34:36;17.40;99.90
26408;DHT22;14583;43.604;1.364;2022-12-18T14:37:02;18.40;99.90
26408;DHT22;14583;43.604;1.364;2022-12-18T14:39:28;18.40;99.90
26408;DHT22;14583;43.604;1.364;2022-12-18T14:41:54;19.30;99.90
26408;DHT22;14583;43.604;1.364;2022-12-18T14:44:20;20.30;99.90
26408;DHT22;14583;43.604;1.364;2022-12-18T14:46:48;20.60;99.90
26408;DHT22;14583;43.604;1.364;2022-12-18T14:49:29;20.20;99.90
26408;DHT22;14583;43.604;1.364;2022-12-18T14:51:57;19.80;99.90
26408;DHT22;14583;43.604;1.364;2022-12-18T14:54:24;21.00;99.90
26408;DHT22;14583;43.604;1.364;2022-12-18T14:57:20;19.70;99.90
26408;DHT22;14583;43.604;1.364;2022-12-18T14:59:46;18.70;99.90
26408;DHT22;14583;43.604;1.364;2022-12-18T15:02:22;17.40;99.90
26408;DHT22;14583;43.604;1.364;2022-12-18T15:05:00;17.50;99.90
26408;DHT22;14583;43.604;1.364;2022-12-18T15:07:26;17.10;99.90
26408;DHT22;14583;43.604;1.364;2022-12-18T15:12:47;15.50;99.90
26408;DHT22;14583;43.604;1.364;2022-12-18T15:20:24;14.90;99.90
26408;DHT22;14583;43.604;1.364;2022-12-18T15:22:50;15.10;99.90
26408;DHT22;14583;43.604;1.364;2022-12-18T15:25:35;15.00;99.90
26408;DHT22;14583;43.604;1.364;2022-12-18T15:28:22;14.80;99.90
26408;DHT22;14583;43.604;1.364;2022-12-18T15:36:19;13.80;99.90
26408;DHT22;14583;43.604;1.364;2022-12-18T15:38:50;13.10;99.90
26408;DHT22;14583;43.604;1.364;2022-12-18T15:41:20;12.90;99.90
26408;DHT22;14583;43.604;1.364;2022-12-18T15:43:48;12.70;99.90
26408;DHT22;14583;43.604;1.364;2022-12-18T15:46:19;12.50;99.90
26408;DHT22;14583;43.604;1.364;2022-12-18T15:48:47;12.30;99.90
26408;DHT22;14583;43.604;1.364;2022-12-18T15:51:34;11.90;99.90
26408;DHT22;14583;43.604;1.364;2022-12-18T15:54:02;11.50;99.90
26408;DHT22;14583;43.604;1.364;2022-12-18T15:56:31;11.40;99.90
26408;DHT22;14583;43.604;1.364;2022-12-18T15:59:18;11.30;99.90
26408;DHT22;14583;43.604;1.364;2022-12-18T16:01:49;11.10;99.90
26408;DHT22;14583;43.604;1.364;2022-12-18T16:04:17;10.90;99.90
26408;DHT22;14583;43.604;1.364;2022-12-18T16:06:45;10.90;99.90
26408;DHT22;14583;43.604;1.364;2022-12-18T16:09:11;10.80;99.90
26408;DHT22;14583;43.604;1.364;2022-12-18T16:11:37;10.70;99.90
26408;DHT22;14583;43.604;1.364;2022-12-18T16:16:49;10.60;99.90
26408;DHT22;14583;43.604;1.364;2022-12-18T16:19:15;10.40;99.90
26408;DHT22;14583;43.604;1.364;2022-12-18T16:21:42;10.40;99.90
26408;DHT22;14583;43.604;1.364;2022-12-18T16:24:29;10.40;99.90
26408;DHT22;14583;43.604;1.364;2022-12-18T16:26:59;10.30;99.90
26408;DHT22;14583;43.604;1.364;2022-12-18T16:29:26;10.20;99.90
26408;DHT22;14583;43.604;1.364;2022-12-18T16:31:56;10.20;99.90
26408;DHT22;14583;43.604;1.364;2022-12-18T16:34:27;10.20;99.90
26408;DHT22;14583;43.604;1.364;2022-12-18T16:37:04;10.10;99.90
26408;DHT22;14583;43.604;1.364;2022-12-18T16:39:30;10.10;99.90
26408;DHT22;14583;43.604;1.364;2022-12-18T16:41:57;10.10;99.90
26408;DHT22;14583;43.604;1.364;2022-12-18T16:44:22;10.10;99.90
26408;DHT22;14583;43.604;1.364;2022-12-18T16:46:48;10.10;99.90
26408;DHT22;14583;43.604;1.364;2022-12-18T16:49:15;10.10;99.90
26408;DHT22;14583;43.604;1.364;2022-12-18T16:51:41;10.10;99.90
26408;DHT22;14583;43.604;1.364;2022-12-18T16:54:08;10.00;99.90
26408;DHT22;14583;43.604;1.364;2022-12-18T16:56:34;10.00;99.90
26408;DHT22;14583;43.604;1.364;2022-12-18T16:59:01;10.00;99.90
26408;DHT22;14583;43.604;1.364;2022-12-18T17:01:29;10.00;99.90
26408;DHT22;14583;43.604;1.364;2022-12-18T17:03:57;10.00;99.90
26408;DHT22;14583;43.604;1.364;2022-12-18T17:06:25;10.00;99.90
26408;DHT22;14583;43.604;1.364;2022-12-18T17:08:58;10.00;99.90
26408;DHT22;14583;43.604;1.364;2022-12-18T17:11:25;10.00;99.90
26408;DHT22;14583;43.604;1.364;2022-12-18T17:13:51;10.00;99.90
26408;DHT22;14583;43.604;1.364;2022-12-18T17:16:17;10.00;99.90
26408;DHT22;14583;43.604;1.364;2022-12-18T17:18:43;10.00;99.90
26408;DHT22;14583;43.604;1.364;2022-12-18T17:21:10;9.90;99.90
26408;DHT22;14583;43.604;1.364;2022-12-18T17:23:36;10.00;99.90
26408;DHT22;14583;43.604;1.364;2022-12-18T17:26:03;10.10;99.90
26408;DHT22;14583;43.604;1.364;2022-12-18T17:28:32;10.10;99.90
26408;DHT22;14583;43.604;1.364;2022-12-18T17:30:57;10.10;99.90
26408;DHT22;14583;43.604;1.364;2022-12-18T17:33:23;10.10;99.90
26408;DHT22;14583;43.604;1.364;2022-12-18T17:35:49;10.20;99.90
26408;DHT22;14583;43.604;1.364;2022-12-18T17:38:15;10.20;99.90
26408;DHT22;14583;43.604;1.364;2022-12-18T17:40:41;10.30;99.90
26408;DHT22;14583;43.604;1.364;2022-12-18T17:43:08;10.40;99.90
26408;DHT22;14583;43.604;1.364;2022-12-18T17:45:38;10.40;99.90
26408;DHT22;14583;43.604;1.364;2022-12-18T17:48:04;10.40;99.90
26408;DHT22;14583;43.604;1.364;2022-12-18T17:50:34;10.50;99.90
26408;DHT22;14583;43.604;1.364;2022-12-18T17:53:00;10.40;99.90
26408;DHT22;14583;43.604;1.364;2022-12-18T17:55:27;10.40;99.90
26408;DHT22;14583;43.604;1.364;2022-12-18T17:57:53;10.50;99.90
26408;DHT22;14583;43.604;1.364;2022-12-18T18:00:19;10.50;99.90
26408;DHT22;14583;43.604;1.364;2022-12-18T18:02:45;10.50;99.90
26408;DHT22;14583;43.604;1.364;2022-12-18T18:05:11;10.50;99.90
26408;DHT22;14583;43.604;1.364;2022-12-18T18:07:38;10.50;99.90
26408;DHT22;14583;43.604;1.364;2022-12-18T18:10:05;10.50;99.90